Flight Track Log - Related Links

Times and Time Zones

All times are in EDT time to prevent confusion due to time zone crossing. See the UPS1337 flight status page for this flight to view local times or setup timezone preferences in your user account.

Time Position Orientation Groundspeed Altitude Reporting Facility
EDT Latitude Longitude Course Direction KTS MPH feet Rate Location/Type
Fri 09:43:55 PM 27.9000 -82.6833 180° South 147 169 600  Level Tampa TRACON
Fri 09:44:31 PM 27.8833 -82.6833 180° South 164 189 2,500 3,228 Climbing Tampa TRACON
Fri 09:46:46 PM 27.9328 -82.7611 306° West 151 174 9,800 3,138 Climbing Jacksonville Center
Fri 09:47:46 PM 28.0267 -82.7444 North 208 239 12,700 2,821 Climbing Jacksonville Center
Fri 09:52:22 PM 28.5648 -82.6165 13° North 449 517 25,600 2,612 Climbing FlightAware ADS-B
Fri 09:53:03 PM 28.6452 -82.5970 12° North 468 539 26,500 1,524 Climbing FlightAware ADS-B
Fri 09:54:28 PM 28.8394 -82.5532 12° North 496 571 28,800 742 Climbing FlightAware ADS-B
Fri 09:59:07 PM 29.4720 -82.5396 359° North 480 552 31,000 387 Climbing FlightAware ADS-B
Fri 10:00:09 PM 29.6008 -82.5414 359° North 474 545 31,000  Level FlightAware ADS-B
Fri 10:00:26 PM 29.6461 -82.5418 North 473 544 31,000  Level FlightAware ADS-B
Fri 10:00:49 PM 29.6956 -82.5353 12° North 483 556 31,000  Level FlightAware ADS-B
Fri 10:02:00 PM 29.8442 -82.4987 12° North 490 564 31,000  Level FlightAware ADS-B
Fri 10:03:00 PM 29.9849 -82.4643 12° North 490 564 31,000  Level FlightAware ADS-B
Fri 10:03:39 PM 30.0690 -82.4437 12° North 491 565 31,000  Level FlightAware ADS-B
Fri 10:04:16 PM 30.1548 -82.4226 12° North 487 560 31,000  Level FlightAware ADS-B
Fri 10:04:59 PM 30.2495 -82.3993 12° North 487 560 31,000  Level FlightAware ADS-B
Fri 10:05:49 PM 30.3596 -82.3722 12° North 490 564 31,000  Level FlightAware ADS-B
Fri 10:06:30 PM 30.4503 -82.3496 12° North 492 566 31,000  Level FlightAware ADS-B
Fri 10:07:17 PM 30.5547 -82.3238 12° North 493 567 31,000 -44 Level FlightAware ADS-B
Fri 10:08:46 PM 30.7328 -82.2811 12° North 486 559 30,900 -40 Descending Jacksonville Center
Fri 10:09:46 PM 30.8683 -82.2489 12° North 486 559 30,900  Level Jacksonville Center
Fri 10:10:46 PM 31.0142 -82.2114 12° North 486 559 30,900  Level Jacksonville Center
Fri 10:11:46 PM 31.1519 -82.1789 11° North 486 559 30,900 500 Level Jacksonville Center
Fri 10:12:46 PM 31.2875 -82.1464 12° North 486 559 31,900 1,500 Climbing Jacksonville Center
Fri 10:13:46 PM 31.4250 -82.1086 13° North 486 559 33,900 1,500 Climbing Jacksonville Center
Fri 10:14:46 PM 31.5606 -82.0733 13° North 491 565 34,900 550 Climbing Jacksonville Center
Fri 10:15:46 PM 31.6961 -82.0403 12° North 491 565 35,000 50 Climbing Jacksonville Center
Fri 10:16:47 PM 31.8253 -82.0050 13° North 482 555 35,000  Level Jacksonville Center
Fri 10:17:46 PM 31.9628 -81.9719 12° North 482 555 35,000  Level Jacksonville Center
Fri 10:18:46 PM 32.0917 -81.9142 21° North 493 567 35,000  Level Jacksonville Center
Fri 10:19:46 PM 32.2083 -81.8589 22° Northeast 493 567 35,000  Level Jacksonville Center
Fri 10:20:46 PM 32.3517 -81.7908 22° Northeast 493 567 35,000  Level Jacksonville Center
Fri 10:21:46 PM 32.4847 -81.7278 22° Northeast 493 567 35,000  Level Jacksonville Center
Fri 10:22:46 PM 32.6011 -81.6719 22° Northeast 493 567 35,000  Level Jacksonville Center
Fri 10:23:46 PM 32.7381 -81.5739 31° Northeast 503 579 35,000  Level Jacksonville Center
Fri 10:24:47 PM 32.8644 -81.4853 30° Northeast 515 593 35,000 -50 Level Jacksonville Center
Fri 10:25:47 PM 32.9886 -81.3967 31° Northeast 515 593 34,900  Descending Jacksonville Center
Fri 10:26:46 PM 33.1128 -81.3053 32° Northeast 515 593 35,000 50 Climbing Jacksonville Center
Fri 10:27:46 PM 33.2222 -81.2239 32° Northeast 515 593 35,000  Level Jacksonville Center
Fri 10:28:46 PM 33.3503 -81.1319 31° Northeast 515 593 35,000 -73 Level Jacksonville Center
Fri 10:34:39 PM 34.1064 -80.5712 32° Northeast 535 616 34,500 -325 Descending FlightAware ADS-B (EFHN)
Fri 10:35:32 PM 34.2168 -80.4889 32° Northeast 524 603 32,800 -1,795 Descending FlightAware ADS-B (EFHN)
Fri 10:36:46 PM 34.3478 -80.3928 32° Northeast 530 610 30,700 -1,925 Descending Jacksonville Center
Fri 10:37:46 PM 34.4669 -80.3036 32° Northeast 515 593 28,500 -2,200 Descending Jacksonville Center
Fri 10:38:46 PM 34.5800 -80.2169 32° Northeast 491 565 26,300 -1,911 Descending Jacksonville Center
Fri 10:40:01 PM 34.7100 -80.1194 32° Northeast 471 542 24,200 -1,015 Descending Washington Center
Fri 10:41:02 PM 34.8114 -80.0314 35° Northeast 454 522 24,000 -99 Descending Washington Center
Fri 10:42:02 PM 34.9089 -79.9278 41° Northeast 454 522 24,000  Level Washington Center
Fri 10:43:02 PM 35.0047 -79.8214 42° Northeast 454 522 24,000  Level Washington Center
Fri 10:44:00 PM 35.0981 -79.7172 42° Northeast 454 522 24,000 -1,412 Level Washington Center
Fri 10:45:01 PM 35.1911 -79.6153 42° Northeast 454 522 21,200 -3,246 Descending Washington Center
Fri 10:46:02 PM 35.3047 -79.5267 32° Northeast 448 516 17,400 -3,797 Descending Washington Center
Fri 10:46:20 PM 35.3433 -79.4981 31° Northeast 436 502 16,200 -3,200 Descending Washington Center
Fri 10:47:02 PM 35.3986 -79.4600 29° Northeast 433 498 14,200 -2,520 Descending Washington Center
Fri 10:48:00 PM 35.5075 -79.3836 30° Northeast 414 476 12,000 -2,164 Descending Washington Center
Fri 10:48:03 PM 35.5100 -79.3761 68° East 392 451 12,000  Level Washington Center
Fri 10:49:01 PM 35.5625 -79.2917 53° Northeast 375 432 12,000  Level Washington Center
Fri 10:49:10 PM 35.5803 -79.2594 56° Northeast 380 437 12,000  Level Washington Center
Fri 10:50:01 PM 35.6306 -79.1850 50° Northeast 361 415 12,000  Level Washington Center
Fri 10:50:10 PM 35.6414 -79.1675 53° Northeast 328 377 12,000  Level Washington Center
Fri 10:51:02 PM 35.6892 -79.1136 42° Northeast 332 382 12,000  Level Washington Center
Fri 10:51:11 PM 35.7064 -79.0914 46° Northeast 324 373 12,000  Level Washington Center
Fri 10:52:00 PM 35.7606 -79.0244 45° Northeast 324 373 12,000 -595 Level Washington Center
Fri 10:53:02 PM 35.8231 -78.9503 44° Northeast 317 365 10,900 -1,280 Descending Washington Center
Fri 10:53:15 PM 35.8361 -78.9331 47° Northeast 321 369 10,400 -1,759 Descending Washington Center
Fri 10:54:00 PM 35.8917 -78.8842 35° Northeast 311 358 9,200 -1,714 Descending Washington Center
Fri 10:54:04 PM 35.8939 -78.8817 42° Northeast 313 360 9,000 -1,161 Descending Washington Center
Fri 10:55:02 PM 35.9622 -78.8228 35° Northeast 311 358 8,000 -930 Descending Washington Center
Fri 10:55:15 PM 35.9772 -78.8081 38° Northeast 290 334 7,900 -1,424 Descending Washington Center
Fri 10:56:01 PM 36.0264 -78.7639 36° Northeast 299 344 6,600 -1,869 Descending Washington Center
Fri 10:56:16 PM 36.0414 -78.7489 39° Northeast 290 334 6,000 -1,371 Descending Washington Center
Fri 10:57:11 PM 36.0969 -78.6972 37° Northeast 266 306 5,000 -517 Descending Washington Center
Fri 10:58:12 PM 36.1297 -78.6394 55° Northeast 197 227 5,000 -605 Level Washington Center
Fri 10:59:10 PM 36.0825 -78.6169 159° South 181 208 3,800 -1,000 Descending Washington Center
Fri 11:00:12 PM 36.0342 -78.6256 188° South 172 198 3,000 -410 Descending Washington Center
Fri 11:01:07 PM 35.9981 -78.6522 211° Southwest 177 204 3,000 -362 Level Washington Center
Fri 11:02:08 PM 35.9594 -78.6944 222° Southwest 176 203 2,300 -730 Descending Washington Center
Fri 11:03:02 PM 35.9356 -78.7294 230° Southwest 131 151 1,600 -737 Descending Washington Center
Fri 11:04:02 PM 35.9075 -78.7617 223° Southwest 128 147 900 -700 Descending Washington Center
Fri 11:06:00 PM 35.8776 -78.7875 North  Level Estimated
Fri 11:13:00 PM 35.8776 -78.7875 North  Level Estimated
Fri 11:14:00 PM 35.8776 -78.7875 12° North  Level Estimated
Fri 11:15:00 PM 35.8776 -78.7875 65° Northeast  Level Estimated
Fri 11:16:00 PM 35.8776 -78.7875 214° Southwest  Level Estimated
Fri 11:17:00 PM 35.8776 -78.7875 163° South  Level Estimated
Fri 11:18:00 PM 35.8776 -78.7875 North  Level Estimated
Fri 11:19:00 PM 35.8776 -78.7875 12° North  Level Estimated
Fri 11:20:00 PM 35.8776 -78.7875 65° Northeast  Level Estimated

Login

Don't have an account? Register now (free) for customized features, flight alerts, and more!